Time;durP1;ratioP1;P1;durP2;ratioP2;P2;SDS_P1;SDS_P2;PMS_P1;PMS_P2;Temp;Humidity;BMP_temperature;BMP_pressure;BME280_temperature;BME280_humidity;BME280_pressure;Samples;Min_cycle;Max_cycle;Signal;HPM_P1;HPM_P2
2023/01/26 00:01:11;;;;;;;38.70;20.58;;;1.70;82.90;;;;;;5096014;28;20024;-66
2023/01/26 00:03:36;;;;;;;32.35;18.08;;;1.70;83.00;;;;;;5091034;28;20510;-65
2023/01/26 00:06:04;;;;;;;38.20;19.17;;;1.60;83.00;;;;;;5095899;28;20020;-65
2023/01/26 00:08:30;;;;;;;35.90;17.70;;;1.60;83.10;;;;;;5091218;28;20054;-64
2023/01/26 00:10:56;;;;;;;35.85;18.52;;;1.70;83.30;;;;;;5094494;28;20028;-65
2023/01/26 00:13:21;;;;;;;46.40;20.88;;;1.70;83.20;;;;;;5091101;28;20047;-65
2023/01/26 00:15:47;;;;;;;34.25;17.20;;;1.80;83.10;;;;;;5094747;28;20027;-59
2023/01/26 00:18:13;;;;;;;32.30;17.55;;;1.70;83.00;;;;;;5092052;28;20093;-61
2023/01/26 00:20:39;;;;;;;35.30;19.98;;;1.70;83.00;;;;;;5086468;28;20029;-60
2023/01/26 00:23:05;;;;;;;28.88;16.73;;;1.70;83.30;;;;;;5091418;28;20119;-60
2023/01/26 00:25:31;;;;;;;27.52;17.77;;;1.60;83.30;;;;;;5092819;28;20028;-60
2023/01/26 00:27:56;;;;;;;31.50;17.00;;;1.70;83.50;;;;;;5095055;28;20044;-59
2023/01/26 00:30:22;;;;;;;28.00;15.95;;;1.70;83.50;;;;;;5090255;28;20667;-60
2023/01/26 00:32:48;;;;;;;29.92;19.23;;;1.80;83.40;;;;;;5091242;28;20032;-65
2023/01/26 00:35:14;;;;;;;31.70;16.73;;;1.80;83.30;;;;;;5089312;28;20106;-65
2023/01/26 00:37:42;;;;;;;30.60;17.08;;;1.80;83.20;;;;;;5097318;28;20036;-61
2023/01/26 00:40:09;;;;;;;24.65;16.50;;;1.80;83.10;;;;;;5095280;28;20035;-61
2023/01/26 00:42:35;;;;;;;32.78;18.38;;;1.80;83.20;;;;;;5101907;28;20024;-60
2023/01/26 00:45:01;;;;;;;34.70;18.00;;;1.80;83.00;;;;;;5091799;28;20031;-67
2023/01/26 00:47:27;;;;;;;31.70;16.42;;;1.80;83.10;;;;;;5098690;28;20024;-64
2023/01/26 00:49:52;;;;;;;33.80;17.92;;;1.80;83.00;;;;;;5091094;28;20024;-65
2023/01/26 00:52:18;;;;;;;31.27;18.00;;;1.90;83.10;;;;;;5091105;28;20032;-65
2023/01/26 00:54:44;;;;;;;34.53;17.88;;;1.90;83.10;;;;;;5086953;28;20499;-64
2023/01/26 00:57:10;;;;;;;29.60;16.48;;;1.90;82.90;;;;;;5071679;28;20020;-65
2023/01/26 00:59:35;;;;;;;27.10;16.40;;;2.00;82.80;;;;;;5073216;28;20036;-64
2023/01/26 01:02:01;;;;;;;28.70;18.40;;;1.90;82.80;;;;;;5099504;28;20032;-64
2023/01/26 01:04:28;;;;;;;26.52;15.60;;;1.90;83.00;;;;;;5071110;28;20391;-65
2023/01/26 01:06:55;;;;;;;32.10;19.15;;;1.90;83.10;;;;;;5098088;28;20050;-65
2023/01/26 01:09:20;;;;;;;25.52;15.27;;;1.90;83.00;;;;;;5101713;28;20054;-60
2023/01/26 01:11:46;;;;;;;32.38;16.48;;;1.90;82.90;;;;;;5100170;28;20071;-59
2023/01/26 01:14:13;;;;;;;30.45;15.82;;;1.90;83.10;;;;;;5092997;28;20040;-65
2023/01/26 01:16:40;;;;;;;32.80;15.38;;;1.90;83.00;;;;;;5097246;28;20032;-66
2023/01/26 01:19:06;;;;;;;26.95;15.98;;;1.90;83.00;;;;;;5100669;28;20424;-65
2023/01/26 01:21:32;;;;;;;29.17;17.05;;;1.90;82.90;;;;;;5102686;28;20438;-65
2023/01/26 01:23:59;;;;;;;22.80;14.98;;;2.00;82.90;;;;;;5102017;28;20043;-60
2023/01/26 01:26:25;;;;;;;30.10;17.10;;;2.00;82.90;;;;;;5092626;28;20378;-60
2023/01/26 01:28:54;;;;;;;30.52;16.85;;;2.00;83.10;;;;;;5090363;28;20044;-64
2023/01/26 01:31:20;;;;;;;28.10;15.13;;;1.90;82.90;;;;;;5093193;28;20020;-65
2023/01/26 01:33:45;;;;;;;27.08;15.02;;;1.90;83.10;;;;;;5099109;28;20047;-65
2023/01/26 01:36:14;;;;;;;26.13;15.85;;;1.90;83.20;;;;;;5093148;28;20055;-60
2023/01/26 01:38:41;;;;;;;23.50;14.85;;;1.90;83.30;;;;;;5100018;28;20132;-60
2023/01/26 01:41:07;;;;;;;31.70;15.50;;;2.00;83.20;;;;;;5098209;28;20027;-64
2023/01/26 01:43:34;;;;;;;27.50;14.88;;;1.90;83.10;;;;;;5098004;28;20032;-60
2023/01/26 01:46:01;;;;;;;30.48;14.63;;;1.90;83.20;;;;;;5077999;28;20088;-59
2023/01/26 01:48:55;;;;;;;21.35;12.98;;;1.90;83.20;;;;;;5061431;28;20474;-60
2023/01/26 01:51:33;;;;;;;23.55;12.48;;;1.90;83.30;;;;;;5098274;28;20032;-60
2023/01/26 01:54:06;;;;;;;20.05;12.40;;;1.80;83.40;;;;;;5096640;28;20032;-60
2023/01/26 01:56:34;;;;;;;19.45;12.70;;;1.90;83.50;;;;;;5094882;28;20525;-60
2023/01/26 01:59:03;;;;;;;24.42;14.65;;;1.90;83.40;;;;;;5078809;28;20032;-60
2023/01/26 02:01:29;;;;;;;24.30;14.50;;;1.90;83.20;;;;;;5095444;28;20051;-60
2023/01/26 02:04:00;;;;;;;21.60;13.10;;;1.90;83.40;;;;;;5080163;28;20566;-60
2023/01/26 02:06:47;;;;;;;23.75;12.95;;;1.90;83.50;;;;;;5096127;28;20023;-60
2023/01/26 02:10:17;;;;;;;24.05;13.02;;;1.90;83.60;;;;;;5087427;28;20119;-64
2023/01/26 02:12:03;;;;;;;20.70;13.02;;;1.90;83.50;;;;;;5077660;28;20067;-64
2023/01/26 02:14:31;;;;;;;23.90;11.90;;;1.90;83.50;;;;;;5092290;28;20433;-64
2023/01/26 02:16:57;;;;;;;29.10;14.27;;;1.80;83.50;;;;;;5090702;28;20024;-65
2023/01/26 02:19:45;;;;;;;21.90;12.68;;;1.90;83.60;;;;;;5094513;28;20123;-64
2023/01/26 02:22:22;;;;;;;31.27;13.35;;;1.90;83.60;;;;;;5086518;28;20320;-64
2023/01/26 02:24:49;;;;;;;21.80;12.88;;;1.80;83.70;;;;;;5093753;28;20062;-65
2023/01/26 02:27:15;;;;;;;21.55;13.15;;;1.90;84.30;;;;;;5103238;28;20543;-64
2023/01/26 02:29:41;;;;;;;25.35;13.63;;;1.90;83.60;;;;;;5099483;28;20031;-64
2023/01/26 02:32:07;;;;;;;20.95;12.60;;;1.90;83.60;;;;;;5109481;28;20036;-65
2023/01/26 02:34:32;;;;;;;19.77;12.73;;;1.90;83.60;;;;;;5074190;28;20505;-65
2023/01/26 02:36:59;;;;;;;22.77;11.57;;;1.90;83.50;;;;;;5097512;28;20053;-65
2023/01/26 02:39:56;;;;;;;21.90;12.48;;;1.90;83.50;;;;;;5081623;28;20297;-65
2023/01/26 02:42:38;;;;;;;24.30;12.82;;;1.90;83.60;;;;;;5069811;28;20256;-65
2023/01/26 02:45:12;;;;;;;18.52;10.90;;;1.90;84.30;;;;;;5084329;28;20028;-65
2023/01/26 02:47:39;;;;;;;16.27;10.48;;;1.90;83.70;;;;;;5085098;28;20020;-60
2023/01/26 02:50:08;;;;;;;15.10;9.88;;;1.90;83.60;;;;;;5079365;28;20237;-65
2023/01/26 02:52:34;;;;;;;25.15;13.15;;;2.00;83.50;;;;;;5094916;28;20023;-64
2023/01/26 02:57:45;;;;;;;21.80;13.65;;;2.00;83.40;;;;;;5107283;28;20104;-65
2023/01/26 03:00:14;;;;;;;16.75;11.82;;;2.00;83.40;;;;;;5094577;28;20036;-65
2023/01/26 03:02:41;;;;;;;19.73;10.23;;;2.00;83.60;;;;;;5084025;28;20028;-65
2023/01/26 03:05:07;;;;;;;19.60;11.00;;;2.00;83.60;;;;;;5104021;28;20036;-65
2023/01/26 03:07:33;;;;;;;18.55;10.93;;;2.00;83.60;;;;;;5097272;28;20055;-59
2023/01/26 03:09:59;;;;;;;21.20;10.90;;;2.00;83.70;;;;;;5081020;28;20046;-59
2023/01/26 03:12:25;;;;;;;19.27;9.65;;;2.00;83.60;;;;;;5097730;28;20500;-60
2023/01/26 03:17:36;;;;;;;20.23;11.02;;;2.00;83.60;;;;;;5101315;28;20047;-58
2023/01/26 03:28:15;;;;;;;16.40;9.27;;;2.10;83.70;;;;;;5083566;28;20138;-64
2023/01/26 03:30:40;;;;;;;17.15;10.45;;;2.10;83.60;;;;;;5075363;28;20046;-65
2023/01/26 03:33:06;;;;;;;18.27;11.30;;;2.10;83.60;;;;;;5093101;28;20115;-65
2023/01/26 03:35:32;;;;;;;15.88;9.63;;;2.10;83.70;;;;;;5090357;28;20032;-65
2023/01/26 03:37:57;;;;;;;14.15;9.77;;;2.10;83.60;;;;;;5095517;28;20027;-65
2023/01/26 03:56:49;;;;;;;17.05;9.40;;;2.00;83.80;;;;;;5102323;28;20119;-65
2023/01/26 03:59:15;;;;;;;15.07;7.85;;;2.00;83.90;;;;;;5096993;28;20518;-64
2023/01/26 04:09:58;;;;;;;10.43;7.80;;;2.10;83.90;;;;;;5091620;28;20468;-65
2023/01/26 04:12:23;;;;;;;15.63;7.80;;;2.10;83.90;;;;;;5074259;28;20040;-65
2023/01/26 04:23:03;;;;;;;8.48;6.82;;;2.20;84.00;;;;;;5100736;28;20031;-65
2023/01/26 04:25:28;;;;;;;13.43;6.28;;;2.20;83.90;;;;;;5095300;28;20032;-65
2023/01/26 04:27:54;;;;;;;10.02;6.68;;;2.30;83.80;;;;;;5086339;28;20040;-65
2023/01/26 04:30:20;;;;;;;8.82;6.22;;;2.20;83.80;;;;;;5096245;28;20032;-65
2023/01/26 04:32:45;;;;;;;13.20;8.20;;;2.20;84.10;;;;;;5066398;28;20185;-66
2023/01/26 04:35:12;;;;;;;14.88;7.07;;;2.20;84.00;;;;;;5093593;28;20039;-65
2023/01/26 04:37:38;;;;;;;12.10;6.43;;;2.20;84.20;;;;;;5097670;28;20480;-64
2023/01/26 04:40:05;;;;;;;9.65;5.18;;;2.20;84.20;;;;;;5094639;28;20354;-65
2023/01/26 04:42:31;;;;;;;10.13;5.47;;;2.20;84.20;;;;;;5098122;28;20390;-65
2023/01/26 04:44:57;;;;;;;12.07;7.45;;;2.30;84.00;;;;;;5096129;28;20021;-65
2023/01/26 04:47:22;;;;;;;8.25;6.03;;;2.30;84.00;;;;;;5102060;28;20038;-65
2023/01/26 04:49:48;;;;;;;7.00;5.43;;;2.30;83.90;;;;;;5094886;28;20052;-66
2023/01/26 04:52:14;;;;;;;12.38;7.30;;;2.30;83.80;;;;;;5102721;28;20530;-65
2023/01/26 04:54:40;;;;;;;8.32;5.63;;;2.30;83.90;;;;;;5100714;28;20036;-64
2023/01/26 04:57:06;;;;;;;10.30;6.07;;;2.30;83.70;;;;;;5087609;28;20032;-59
2023/01/26 04:59:32;;;;;;;7.47;5.57;;;2.30;83.80;;;;;;5098607;28;20051;-59
2023/01/26 05:01:58;;;;;;;12.60;7.45;;;2.40;83.90;;;;;;5063884;28;20487;-59
2023/01/26 05:04:23;;;;;;;9.68;6.45;;;2.40;83.80;;;;;;5081447;28;20055;-59
2023/01/26 05:06:49;;;;;;;13.52;6.32;;;2.50;83.90;;;;;;5094407;28;20023;-60
2023/01/26 05:09:14;;;;;;;8.60;6.60;;;2.50;83.80;;;;;;5090593;28;20066;-61
2023/01/26 05:11:40;;;;;;;8.40;6.43;;;2.60;83.70;;;;;;5072836;28;20031;-59
2023/01/26 05:14:06;;;;;;;12.13;6.95;;;2.60;83.60;;;;;;5090261;28;20032;-59
2023/01/26 05:16:31;;;;;;;9.38;5.72;;;2.60;83.70;;;;;;5091468;28;20028;-59
2023/01/26 05:18:57;;;;;;;12.25;8.00;;;2.60;83.60;;;;;;5091986;28;20330;-59
2023/01/26 05:21:23;;;;;;;8.13;6.22;;;2.60;83.60;;;;;;5089920;28;20024;-65
2023/01/26 05:23:50;;;;;;;11.63;7.10;;;2.60;83.60;;;;;;5091783;28;20020;-65
2023/01/26 05:26:16;;;;;;;9.20;5.70;;;2.60;83.60;;;;;;5096357;28;20062;-65
2023/01/26 05:28:42;;;;;;;9.13;6.32;;;2.60;83.70;;;;;;5084876;28;20052;-65
2023/01/26 05:31:07;;;;;;;9.02;5.63;;;2.60;83.50;;;;;;5101465;28;20085;-65
2023/01/26 05:33:33;;;;;;;10.13;7.05;;;2.60;83.60;;;;;;5091873;28;20032;-65
2023/01/26 05:36:04;;;;;;;9.95;5.22;;;2.60;83.60;;;;;;5099132;28;20451;-64
2023/01/26 05:38:30;;;;;;;9.55;6.18;;;2.70;83.60;;;;;;5088144;28;20051;-64
2023/01/26 05:40:55;;;;;;;16.55;6.20;;;2.70;83.50;;;;;;5079750;28;20028;-64
2023/01/26 05:43:21;;;;;;;8.43;5.72;;;2.70;83.40;;;;;;5088141;28;20051;-64
2023/01/26 05:45:47;;;;;;;8.60;5.53;;;2.70;83.40;;;;;;5096232;28;20050;-65
2023/01/26 05:48:12;;;;;;;10.88;5.82;;;2.70;83.50;;;;;;5090927;28;20085;-60
2023/01/26 05:50:38;;;;;;;7.47;5.82;;;2.70;83.50;;;;;;5099084;28;20040;-65
2023/01/26 05:53:05;;;;;;;7.90;6.15;;;2.70;83.60;;;;;;5091539;28;20035;-60
2023/01/26 05:55:30;;;;;;;10.05;6.38;;;2.70;83.60;;;;;;5094640;28;20028;-60
2023/01/26 05:57:56;;;;;;;9.50;4.43;;;2.70;83.50;;;;;;5094878;28;20081;-66
2023/01/26 06:00:22;;;;;;;8.23;5.13;;;2.70;83.60;;;;;;5104402;28;20032;-64
2023/01/26 06:02:48;;;;;;;11.57;5.78;;;2.70;83.50;;;;;;5092851;28;20386;-59
2023/01/26 06:05:14;;;;;;;9.25;6.20;;;2.70;83.40;;;;;;5104446;28;20025;-58
2023/01/26 06:07:39;;;;;;;10.18;7.13;;;2.70;83.30;;;;;;5112980;28;20019;-60
2023/01/26 06:10:05;;;;;;;7.75;4.50;;;2.70;83.50;;;;;;5102103;28;20032;-60
2023/01/26 06:12:34;;;;;;;10.40;5.32;;;2.70;83.50;;;;;;5091276;28;20031;-59
2023/01/26 06:15:00;;;;;;;8.15;5.28;;;2.70;83.50;;;;;;5108045;28;20042;-59
2023/01/26 06:17:26;;;;;;;9.75;6.47;;;2.70;83.60;;;;;;5103049;28;20569;-60
2023/01/26 06:19:52;;;;;;;7.13;4.13;;;2.70;83.60;;;;;;5111394;28;20026;-60
2023/01/26 06:22:18;;;;;;;11.07;5.22;;;2.70;83.60;;;;;;5079407;28;21057;-59
2023/01/26 06:24:44;;;;;;;7.25;5.45;;;2.80;83.60;;;;;;5093784;28;20052;-59
2023/01/26 06:27:15;;;;;;;11.18;5.78;;;2.80;83.40;;;;;;5095289;28;20024;-64
2023/01/26 06:29:41;;;;;;;8.38;4.95;;;2.80;83.40;;;;;;5084271;28;20031;-65
2023/01/26 06:32:11;;;;;;;6.70;4.50;;;2.70;83.60;;;;;;5100440;28;20019;-65
2023/01/26 06:34:36;;;;;;;6.90;4.63;;;2.70;83.70;;;;;;5081973;28;20024;-65
2023/01/26 06:37:02;;;;;;;6.60;5.10;;;2.80;83.70;;;;;;5090554;28;20032;-64
2023/01/26 06:39:28;;;;;;;6.80;4.93;;;2.80;83.60;;;;;;5092650;28;20055;-65
2023/01/26 06:41:53;;;;;;;7.75;4.72;;;2.80;83.40;;;;;;5090758;28;20318;-65
2023/01/26 06:44:19;;;;;;;6.72;4.88;;;2.90;83.50;;;;;;5093523;28;20036;-65
2023/01/26 06:46:45;;;;;;;7.20;5.10;;;2.90;83.40;;;;;;5103138;28;20506;-65
2023/01/26 06:49:10;;;;;;;8.13;6.30;;;2.90;83.30;;;;;;5102254;28;20031;-65
2023/01/26 06:51:56;;;;;;;13.00;6.47;;;3.00;83.40;;;;;;5089940;28;20341;-65
2023/01/26 06:54:22;;;;;;;9.40;6.10;;;3.00;83.40;;;;;;5091924;28;20020;-64
2023/01/26 06:56:47;;;;;;;8.55;5.53;;;3.00;83.40;;;;;;5091076;28;20024;-64
2023/01/26 06:59:13;;;;;;;7.35;5.13;;;3.10;83.30;;;;;;5074594;28;20129;-64
2023/01/26 07:01:46;;;;;;;8.30;4.18;;;3.10;83.30;;;;;;5090217;28;20494;-66
2023/01/26 07:04:11;;;;;;;12.25;6.15;;;3.00;83.30;;;;;;5090942;28;20047;-65
2023/01/26 07:06:37;;;;;;;5.45;4.22;;;3.00;83.30;;;;;;5072587;28;20469;-65
2023/01/26 07:09:03;;;;;;;12.05;6.43;;;3.00;83.50;;;;;;5091605;28;20055;-64
2023/01/26 07:11:31;;;;;;;15.20;6.38;;;3.00;83.50;;;;;;5088271;28;20062;-65
2023/01/26 07:13:57;;;;;;;10.90;6.90;;;2.90;83.60;;;;;;5090732;28;20064;-65
2023/01/26 07:16:22;;;;;;;8.68;5.13;;;3.00;83.70;;;;;;5094886;28;20047;-65
2023/01/26 07:18:48;;;;;;;12.10;5.15;;;3.00;83.70;;;;;;5095269;28;20055;-59
2023/01/26 07:21:17;;;;;;;8.35;5.85;;;3.00;83.60;;;;;;5091960;28;20280;-65
2023/01/26 07:23:43;;;;;;;11.77;6.05;;;3.00;83.60;;;;;;5085063;28;20103;-60
2023/01/26 07:26:08;;;;;;;8.80;6.07;;;3.00;83.60;;;;;;5085324;28;20107;-69
2023/01/26 07:28:34;;;;;;;10.63;5.30;;;3.10;83.60;;;;;;5092968;28;20055;-66
2023/01/26 07:31:01;;;;;;;7.13;5.13;;;3.10;83.60;;;;;;5089866;28;20151;-67
2023/01/26 07:33:31;;;;;;;9.88;5.57;;;3.10;83.50;;;;;;5089701;28;20040;-64
2023/01/26 07:35:57;;;;;;;12.93;6.80;;;3.20;83.60;;;;;;5090416;28;20500;-58
2023/01/26 07:38:24;;;;;;;8.23;5.75;;;3.20;83.60;;;;;;5092632;28;20028;-59
2023/01/26 07:40:50;;;;;;;10.00;5.40;;;3.20;83.50;;;;;;5090353;28;20036;-60
2023/01/26 07:43:16;;;;;;;9.02;4.82;;;3.10;83.50;;;;;;5092651;28;20027;-59
2023/01/26 07:45:52;;;;;;;8.00;5.45;;;3.10;83.70;;;;;;5100576;27;20084;-60
2023/01/26 07:48:23;;;;;;;5.68;4.35;;;3.10;83.60;;;;;;5084916;28;20016;-60
2023/01/26 07:50:49;;;;;;;10.52;6.43;;;3.10;83.70;;;;;;5082860;28;20059;-60
2023/01/26 07:53:21;;;;;;;9.60;5.55;;;3.10;83.80;;;;;;5084695;28;20479;-60
2023/01/26 07:55:48;;;;;;;5.95;4.60;;;3.10;84.00;;;;;;5089484;28;20050;-65
2023/01/26 07:58:14;;;;;;;10.20;6.15;;;3.20;84.10;;;;;;5092877;28;20067;-65
2023/01/26 08:00:40;;;;;;;8.45;6.00;;;3.20;84.10;;;;;;5090420;28;20491;-59
2023/01/26 08:03:06;;;;;;;9.15;5.53;;;3.20;84.10;;;;;;5070769;28;20035;-58
2023/01/26 08:05:32;;;;;;;8.77;5.45;;;3.20;84.10;;;;;;5090961;28;20073;-59
2023/01/26 08:07:58;;;;;;;10.60;6.32;;;3.20;84.10;;;;;;5096430;28;20012;-59
2023/01/26 08:10:31;;;;;;;11.15;6.70;;;3.30;84.30;;;;;;5097798;28;20028;-59
2023/01/26 08:13:00;;;;;;;7.68;5.15;;;3.20;84.30;;;;;;5102418;28;20035;-58
2023/01/26 08:15:26;;;;;;;12.68;6.63;;;3.30;84.30;;;;;;5076575;28;20023;-58
2023/01/26 08:17:55;;;;;;;12.27;6.40;;;3.30;84.30;;;;;;5087867;28;20020;-59
2023/01/26 08:20:21;;;;;;;12.35;6.22;;;3.30;84.40;;;;;;5088929;28;20032;-60
2023/01/26 08:22:47;;;;;;;10.70;6.75;;;3.30;84.40;;;;;;5091893;28;20023;-59
2023/01/26 08:25:12;;;;;;;14.27;6.50;;;3.30;84.40;;;;;;5089536;28;20368;-62
2023/01/26 08:27:38;;;;;;;9.27;5.72;;;3.30;84.40;;;;;;5089597;28;20040;-63
2023/01/26 08:30:05;;;;;;;12.00;5.68;;;3.30;84.40;;;;;;5047676;28;20063;-64
2023/01/26 08:32:31;;;;;;;13.63;7.03;;;3.40;84.40;;;;;;5068629;28;20050;-59
2023/01/26 08:34:57;;;;;;;12.32;6.82;;;3.40;84.40;;;;;;5085960;28;20024;-62
2023/01/26 08:37:22;;;;;;;12.52;6.72;;;3.40;84.40;;;;;;5088360;28;20036;-59
2023/01/26 08:39:48;;;;;;;18.70;7.57;;;3.40;85.20;;;;;;5089963;28;20016;-59
2023/01/26 08:42:14;;;;;;;14.77;8.05;;;3.40;84.80;;;;;;5096362;28;20071;-62
2023/01/26 08:44:39;;;;;;;12.07;7.65;;;3.40;84.80;;;;;;5094641;28;20028;-62
2023/01/26 08:47:05;;;;;;;7.53;5.15;;;3.40;84.90;;;;;;5087471;28;20490;-62
2023/01/26 08:49:31;;;;;;;9.00;6.93;;;3.50;84.90;;;;;;5095946;28;20443;-61
2023/01/26 08:51:56;;;;;;;12.90;6.20;;;3.50;84.80;;;;;;5094021;28;20028;-63
2023/01/26 08:54:22;;;;;;;11.10;7.00;;;3.50;84.80;;;;;;5100858;28;20405;-63
2023/01/26 08:56:48;;;;;;;10.35;7.00;;;3.50;84.80;;;;;;5092485;28;20136;-62
2023/01/26 08:59:13;;;;;;;13.55;6.85;;;3.50;84.80;;;;;;5102273;28;20028;-63
2023/01/26 09:01:39;;;;;;;15.23;7.97;;;3.60;84.90;;;;;;5093430;28;20058;-63
2023/01/26 09:04:05;;;;;;;11.68;8.50;;;3.60;85.00;;;;;;5087776;28;20110;-63
2023/01/26 09:06:31;;;;;;;16.50;7.32;;;3.60;85.10;;;;;;5091788;28;20024;-63
2023/01/26 09:08:57;;;;;;;16.02;9.18;;;3.60;85.10;;;;;;5100518;28;20043;-59
2023/01/26 09:11:23;;;;;;;17.27;7.50;;;3.70;85.20;;;;;;5091818;28;20089;-59
2023/01/26 09:13:56;;;;;;;16.00;7.78;;;3.70;85.20;;;;;;5090832;28;20469;-59
2023/01/26 09:16:23;;;;;;;12.88;7.43;;;3.70;85.10;;;;;;5108388;28;20145;-58
2023/01/26 09:18:53;;;;;;;15.68;7.70;;;3.70;85.10;;;;;;5109329;28;20111;-59
2023/01/26 09:21:19;;;;;;;15.80;8.27;;;3.70;85.00;;;;;;5091311;28;20019;-58
2023/01/26 09:23:45;;;;;;;13.55;8.18;;;3.80;85.10;;;;;;5108877;28;20363;-59
2023/01/26 09:26:11;;;;;;;13.05;7.30;;;3.80;85.10;;;;;;5109317;28;20115;-58
2023/01/26 09:28:38;;;;;;;15.88;8.00;;;3.80;85.00;;;;;;5105227;28;20055;-59
2023/01/26 09:31:05;;;;;;;21.75;8.38;;;3.80;85.10;;;;;;5106668;28;20024;-60
2023/01/26 09:33:31;;;;;;;14.70;7.95;;;3.80;85.20;;;;;;5080437;28;20024;-59
2023/01/26 09:36:03;;;;;;;18.77;8.55;;;3.80;85.30;;;;;;5096985;28;20077;-59
2023/01/26 09:38:29;;;;;;;20.73;10.82;;;3.80;85.40;;;;;;5077319;28;20240;-63
2023/01/26 09:41:07;;;;;;;14.48;8.73;;;3.70;85.60;;;;;;5102120;28;20036;-68
2023/01/26 09:43:53;;;;;;;21.35;8.73;;;3.80;85.70;;;;;;5098737;28;20028;-62
2023/01/26 09:46:36;;;;;;;12.18;6.80;;;3.80;85.70;;;;;;5088860;28;20483;-62
2023/01/26 09:49:16;;;;;;;13.43;7.47;;;3.90;85.80;;;;;;5096402;28;20494;-62
2023/01/26 09:51:54;;;;;;;9.80;6.50;;;3.90;85.70;;;;;;5074305;28;20395;-62
2023/01/26 09:54:37;;;;;;;16.27;7.22;;;4.00;85.70;;;;;;5088797;28;20024;-60
2023/01/26 09:57:19;;;;;;;17.27;8.57;;;4.00;85.60;;;;;;5088714;28;20028;-60
2023/01/26 10:00:21;;;;;;;14.55;7.45;;;4.10;85.70;;;;;;5113161;27;20718;-68
2023/01/26 10:03:09;;;;;;;25.98;7.25;;;4.10;85.60;;;;;;5091799;28;20028;-65
2023/01/26 10:05:53;;;;;;;12.98;7.15;;;4.20;85.60;;;;;;5090657;28;20380;-65
2023/01/26 10:08:25;;;;;;;19.25;8.65;;;4.30;85.70;;;;;;5106820;28;20027;-64
2023/01/26 10:11:12;;;;;;;12.35;7.70;;;4.30;85.70;;;;;;5089234;28;20025;-59
2023/01/26 10:13:40;;;;;;;17.33;9.07;;;4.50;85.60;;;;;;5098070;28;20505;-65
2023/01/26 10:16:09;;;;;;;11.63;6.82;;;4.60;85.60;;;;;;5084141;28;20062;-60
2023/01/26 10:18:58;;;;;;;14.80;7.60;;;4.70;85.50;;;;;;5088544;28;20081;-65
2023/01/26 10:21:29;;;;;;;11.77;6.60;;;4.80;85.40;;;;;;5103081;28;20031;-59
2023/01/26 10:23:59;;;;;;;13.95;8.02;;;4.90;85.40;;;;;;5105013;28;20030;-59
2023/01/26 10:26:30;;;;;;;18.67;8.10;;;5.00;85.30;;;;;;5108267;28;20024;-59
2023/01/26 10:28:56;;;;;;;18.92;7.88;;;5.10;85.20;;;;;;5060715;28;20041;-59
2023/01/26 10:31:26;;;;;;;14.70;7.65;;;5.10;85.20;;;;;;5100720;28;20040;-60
2023/01/26 10:34:05;;;;;;;13.18;6.40;;;5.20;85.30;;;;;;5102540;28;20036;-60
2023/01/26 10:36:31;;;;;;;11.23;7.30;;;5.20;85.40;;;;;;5088008;28;20024;-60
2023/01/26 10:39:04;;;;;;;13.00;6.85;;;5.40;85.40;;;;;;5091068;28;20436;-60
2023/01/26 10:41:30;;;;;;;9.00;6.22;;;5.70;85.10;;;;;;5091899;28;20020;-60
2023/01/26 10:44:24;;;;;;;12.15;7.07;;;5.90;85.00;;;;;;5091744;28;20028;-59
2023/01/26 10:47:03;;;;;;;15.00;6.68;;;6.20;84.60;;;;;;5079607;28;20047;-60
2023/01/26 10:49:29;;;;;;;10.07;6.60;;;6.40;84.30;;;;;;5085902;28;20024;-60
2023/01/26 10:52:24;;;;;;;15.98;7.07;;;6.60;84.50;;;;;;5079317;28;20489;-65
2023/01/26 10:55:11;;;;;;;13.30;7.25;;;6.90;84.60;;;;;;5065285;28;20045;-65
2023/01/26 10:57:40;;;;;;;10.70;6.88;;;7.30;84.80;;;;;;5085354;28;20387;-65
2023/01/26 11:00:22;;;;;;;10.43;6.03;;;7.70;84.20;;;;;;5091920;28;20020;-65
2023/01/26 11:03:18;;;;;;;12.55;6.95;;;8.40;82.00;;;;;;5091711;28;20032;-64
2023/01/26 11:05:46;;;;;;;12.30;6.05;;;9.40;79.10;;;;;;5090303;28;20466;-65
2023/01/26 11:08:34;;;;;;;9.32;4.47;;;10.70;74.90;;;;;;5095104;28;20032;-65
2023/01/26 11:11:00;;;;;;;9.38;5.10;;;12.30;70.70;;;;;;5112035;28;20023;-65
2023/01/26 11:13:26;;;;;;;9.20;3.83;;;13.70;66.80;;;;;;5104689;28;20062;-65
2023/01/26 11:16:13;;;;;;;9.77;4.03;;;15.10;63.70;;;;;;5104420;28;20063;-65
2023/01/26 11:18:59;;;;;;;6.93;4.55;;;16.30;60.20;;;;;;5089474;28;20020;-65
2023/01/26 11:21:27;;;;;;;5.93;4.03;;;17.30;57.50;;;;;;5110194;28;20019;-65
2023/01/26 11:24:03;;;;;;;7.95;3.85;;;18.10;55.80;;;;;;5110832;28;20024;-60
2023/01/26 11:26:38;;;;;;;6.38;3.08;;;18.60;54.30;;;;;;5110179;28;20446;-65
2023/01/26 11:29:09;;;;;;;4.60;2.60;;;19.20;54.10;;;;;;5091653;28;20051;-65
2023/01/26 11:31:50;;;;;;;5.40;3.33;;;19.60;52.80;;;;;;5076977;28;20111;-60
2023/01/26 11:34:43;;;;;;;6.38;3.50;;;19.90;51.30;;;;;;5091726;28;20083;-65
2023/01/26 11:37:27;;;;;;;;;;;20.20;51.60;;;;;;5089501;28;20062;-65
2023/01/26 11:40:03;;;;;;;13.40;3.78;;;20.70;50.10;;;;;;5090607;28;20328;-65
2023/01/26 11:42:47;;;;;;;6.85;2.33;;;21.10;49.30;;;;;;5097676;28;20442;-60
2023/01/26 11:45:34;;;;;;;4.28;2.00;;;20.90;50.10;;;;;;5090454;28;20111;-60
2023/01/26 11:48:35;;;;;;;6.70;2.70;;;21.30;49.40;;;;;;5072372;28;20031;-60
2023/01/26 11:51:28;;;;;;;5.82;2.22;;;21.70;49.50;;;;;;5088070;28;20024;-65
2023/01/26 11:54:09;;;;;;;3.47;1.75;;;22.20;48.10;;;;;;5104106;28;20060;-65
2023/01/26 11:56:50;;;;;;;6.75;2.28;;;22.60;47.70;;;;;;5096015;28;20028;-65
2023/01/26 11:59:25;;;;;;;4.18;2.35;;;22.70;46.70;;;;;;5090061;28;20483;-65
2023/01/26 12:02:02;;;;;;;4.32;1.80;;;22.60;46.30;;;;;;5072499;28;20034;-66
2023/01/26 12:04:32;;;;;;;6.20;1.58;;;22.40;45.90;;;;;;5090264;28;20054;-66
2023/01/26 12:07:05;;;;;;;4.38;2.30;;;22.30;46.50;;;;;;5094816;28;20024;-65
2023/01/26 12:09:44;;;;;;;7.43;3.00;;;22.00;47.40;;;;;;5091532;28;20032;-66
2023/01/26 12:12:25;;;;;;;2.63;1.33;;;21.70;46.90;;;;;;5078994;28;20027;-65
2023/01/26 12:15:03;;;;;;;5.32;2.25;;;21.20;47.40;;;;;;5090984;28;20028;-66
2023/01/26 12:17:52;;;;;;;5.07;2.13;;;20.90;47.90;;;;;;5097236;28;20183;-66
2023/01/26 12:20:26;;;;;;;7.25;1.70;;;21.00;48.40;;;;;;5084716;28;20035;-66
2023/01/26 12:23:07;;;;;;;11.68;2.17;;;21.30;47.90;;;;;;5088681;28;20024;-66
2023/01/26 12:25:40;;;;;;;6.80;2.00;;;21.50;46.40;;;;;;5096113;28;20024;-64
2023/01/26 12:28:30;;;;;;;2.88;1.60;;;21.90;46.50;;;;;;5077518;28;20040;-65
2023/01/26 12:31:18;;;;;;;3.88;1.30;;;22.60;46.50;;;;;;5086686;28;20486;-65
2023/01/26 12:33:45;;;;;;;6.20;2.22;;;23.30;44.50;;;;;;5086668;28;20035;-65
2023/01/26 12:36:35;;;;;;;7.63;1.65;;;23.80;43.30;;;;;;5087828;28;20234;-65
2023/01/26 12:39:27;;;;;;;4.25;1.33;;;24.20;43.00;;;;;;5092310;28;20031;-60
2023/01/26 12:42:30;;;;;;;7.05;2.55;;;24.40;42.40;;;;;;5085588;28;20384;-60
2023/01/26 12:44:59;;;;;;;8.93;1.30;;;24.60;42.80;;;;;;5088958;28;20032;-60
2023/01/26 12:47:36;;;;;;;6.00;2.28;;;24.80;41.60;;;;;;5092089;28;20074;-65
2023/01/26 12:50:14;;;;;;;5.43;1.50;;;24.70;41.50;;;;;;5075646;28;20030;-65
2023/01/26 12:53:01;;;;;;;3.72;1.25;;;24.20;41.50;;;;;;5091160;28;20032;-65
2023/01/26 12:55:39;;;;;;;10.00;1.30;;;23.00;43.00;;;;;;5100312;28;20036;-65
2023/01/26 12:58:11;;;;;;;6.35;1.60;;;21.90;45.10;;;;;;5098387;28;20032;-65
2023/01/26 13:00:38;;;;;;;9.55;1.92;;;20.90;46.30;;;;;;5101944;28;20516;-65
2023/01/26 13:03:12;;;;;;;4.68;1.67;;;19.90;47.80;;;;;;5073600;28;20039;-66
2023/01/26 13:05:54;;;;;;;2.45;1.58;;;18.70;49.60;;;;;;5095709;28;20062;-59
2023/01/26 13:08:29;;;;;;;1.35;1.02;;;17.20;52.10;;;;;;5075948;28;20024;-61
2023/01/26 13:10:59;;;;;;;6.18;1.42;;;15.90;54.60;;;;;;5098577;28;20038;-60
2023/01/26 13:13:29;;;;;;;3.65;1.23;;;15.10;56.80;;;;;;5098731;28;20016;-65
2023/01/26 13:16:15;;;;;;;2.75;0.82;;;14.40;58.50;;;;;;5091823;28;20050;-60
2023/01/26 13:18:49;;;;;;;7.95;1.70;;;13.90;60.10;;;;;;5069685;28;20036;-65
2023/01/26 13:21:36;;;;;;;12.85;1.58;;;13.50;61.40;;;;;;5075252;28;20024;-66
2023/01/26 13:24:25;;;;;;;4.03;0.90;;;13.40;61.90;;;;;;5087787;28;20016;-65
2023/01/26 13:26:58;;;;;;;3.47;1.55;;;13.20;62.70;;;;;;5092010;28;20009;-65
2023/01/26 13:29:24;;;;;;;7.90;1.35;;;12.90;63.50;;;;;;5092350;28;20118;-65
2023/01/26 13:31:50;;;;;;;5.57;1.73;;;12.60;64.10;;;;;;5079973;28;20117;-65
2023/01/26 13:34:21;;;;;;;3.40;1.27;;;12.30;64.80;;;;;;5104451;28;20032;-65
2023/01/26 13:36:49;;;;;;;3.85;1.67;;;12.10;65.40;;;;;;5099049;28;20379;-60
2023/01/26 13:39:23;;;;;;;4.57;1.30;;;11.90;66.10;;;;;;5090674;28;20055;-65
2023/01/26 13:41:49;;;;;;;3.72;1.35;;;11.80;66.60;;;;;;5098229;28;20430;-66
2023/01/26 13:44:24;;;;;;;1.95;1.20;;;11.60;67.20;;;;;;5108900;28;20243;-65
2023/01/26 13:46:55;;;;;;;6.55;1.92;;;11.50;67.50;;;;;;5090531;28;20047;-65
2023/01/26 13:49:35;;;;;;;9.45;1.70;;;11.40;67.90;;;;;;5109426;28;20094;-60